sensor_id;sensor_type;location;lat;lon;timestamp;temperature;humidity
39881;DHT22;25554;44.954;10.068;2023-11-21T00:01:54;10.10;99.90
39881;DHT22;25554;44.954;10.068;2023-11-21T00:04:21;10.00;99.90
39881;DHT22;25554;44.954;10.068;2023-11-21T00:06:47;10.10;99.90
39881;DHT22;25554;44.954;10.068;2023-11-21T00:09:14;10.10;99.90
39881;DHT22;25554;44.954;10.068;2023-11-21T00:11:44;10.10;99.90
39881;DHT22;25554;44.954;10.068;2023-11-21T00:14:10;10.10;99.90
39881;DHT22;25554;44.954;10.068;2023-11-21T00:16:37;10.10;99.90
39881;DHT22;25554;44.954;10.068;2023-11-21T00:19:03;10.10;99.90
39881;DHT22;25554;44.954;10.068;2023-11-21T00:21:29;10.10;99.90
39881;DHT22;25554;44.954;10.068;2023-11-21T00:23:55;10.10;99.90
39881;DHT22;25554;44.954;10.068;2023-11-21T00:26:22;10.10;99.90
39881;DHT22;25554;44.954;10.068;2023-11-21T00:28:57;10.00;99.90
39881;DHT22;25554;44.954;10.068;2023-11-21T00:31:23;10.10;99.90
39881;DHT22;25554;44.954;10.068;2023-11-21T00:33:50;10.10;99.90
39881;DHT22;25554;44.954;10.068;2023-11-21T00:36:16;12.90;99.90
39881;DHT22;25554;44.954;10.068;2023-11-21T00:38:42;10.00;99.90
39881;DHT22;25554;44.954;10.068;2023-11-21T00:41:08;10.00;99.90
39881;DHT22;25554;44.954;10.068;2023-11-21T00:43:34;10.00;99.90
39881;DHT22;25554;44.954;10.068;2023-11-21T00:46:03;10.00;99.90
39881;DHT22;25554;44.954;10.068;2023-11-21T00:48:29;12.30;99.90
39881;DHT22;25554;44.954;10.068;2023-11-21T00:50:56;10.00;99.90
39881;DHT22;25554;44.954;10.068;2023-11-21T00:53:22;9.90;99.90
39881;DHT22;25554;44.954;10.068;2023-11-21T00:55:48;10.00;99.90
39881;DHT22;25554;44.954;10.068;2023-11-21T00:58:14;10.00;99.90
39881;DHT22;25554;44.954;10.068;2023-11-21T01:00:40;10.00;99.90
39881;DHT22;25554;44.954;10.068;2023-11-21T01:03:07;10.00;99.90
39881;DHT22;25554;44.954;10.068;2023-11-21T01:05:35;10.00;99.90
39881;DHT22;25554;44.954;10.068;2023-11-21T01:08:01;10.00;99.90
39881;DHT22;25554;44.954;10.068;2023-11-21T01:10:27;10.10;99.90
39881;DHT22;25554;44.954;10.068;2023-11-21T01:12:53;10.10;99.90
39881;DHT22;25554;44.954;10.068;2023-11-21T01:15:19;10.10;99.90
39881;DHT22;25554;44.954;10.068;2023-11-21T01:17:45;7.00;99.90
39881;DHT22;25554;44.954;10.068;2023-11-21T01:20:12;10.10;99.90
39881;DHT22;25554;44.954;10.068;2023-11-21T01:22:39;10.10;99.90
39881;DHT22;25554;44.954;10.068;2023-11-21T01:25:06;10.10;99.90
39881;DHT22;25554;44.954;10.068;2023-11-21T01:27:33;10.10;99.90
39881;DHT22;25554;44.954;10.068;2023-11-21T01:30:01;10.10;99.90
39881;DHT22;25554;44.954;10.068;2023-11-21T01:32:27;10.10;99.90
39881;DHT22;25554;44.954;10.068;2023-11-21T01:34:54;10.10;99.90
39881;DHT22;25554;44.954;10.068;2023-11-21T01:37:21;10.10;99.90
39881;DHT22;25554;44.954;10.068;2023-11-21T01:39:48;10.10;99.90
39881;DHT22;25554;44.954;10.068;2023-11-21T01:42:15;10.10;99.90
39881;DHT22;25554;44.954;10.068;2023-11-21T01:44:41;10.10;99.90
39881;DHT22;25554;44.954;10.068;2023-11-21T01:47:07;10.10;99.90
39881;DHT22;25554;44.954;10.068;2023-11-21T01:49:33;10.10;99.90
39881;DHT22;25554;44.954;10.068;2023-11-21T01:52:00;10.20;99.90
39881;DHT22;25554;44.954;10.068;2023-11-21T01:54:27;10.20;99.90
39881;DHT22;25554;44.954;10.068;2023-11-21T01:56:55;10.20;99.90
39881;DHT22;25554;44.954;10.068;2023-11-21T01:59:21;10.20;99.90
39881;DHT22;25554;44.954;10.068;2023-11-21T02:01:48;10.20;99.90
39881;DHT22;25554;44.954;10.068;2023-11-21T02:04:16;10.20;99.90
39881;DHT22;25554;44.954;10.068;2023-11-21T02:06:42;10.10;99.90
39881;DHT22;25554;44.954;10.068;2023-11-21T02:09:09;10.10;99.90
39881;DHT22;25554;44.954;10.068;2023-11-21T02:11:35;10.10;99.90
39881;DHT22;25554;44.954;10.068;2023-11-21T02:14:01;10.10;99.90
39881;DHT22;25554;44.954;10.068;2023-11-21T02:16:27;10.10;99.90
39881;DHT22;25554;44.954;10.068;2023-11-21T02:18:57;10.10;99.90
39881;DHT22;25554;44.954;10.068;2023-11-21T02:21:24;10.10;99.90
39881;DHT22;25554;44.954;10.068;2023-11-21T02:23:51;10.00;99.90
39881;DHT22;25554;44.954;10.068;2023-11-21T02:26:17;10.00;99.90
39881;DHT22;25554;44.954;10.068;2023-11-21T02:28:45;10.00;99.90
39881;DHT22;25554;44.954;10.068;2023-11-21T02:31:11;10.00;99.90
39881;DHT22;25554;44.954;10.068;2023-11-21T02:33:38;10.00;99.90
39881;DHT22;25554;44.954;10.068;2023-11-21T02:36:05;10.10;99.90
39881;DHT22;25554;44.954;10.068;2023-11-21T02:38:31;10.10;99.90
39881;DHT22;25554;44.954;10.068;2023-11-21T02:40:57;10.10;99.90
39881;DHT22;25554;44.954;10.068;2023-11-21T02:43:25;10.20;99.90
39881;DHT22;25554;44.954;10.068;2023-11-21T02:45:51;10.20;99.90
39881;DHT22;25554;44.954;10.068;2023-11-21T02:48:17;10.20;99.90
39881;DHT22;25554;44.954;10.068;2023-11-21T02:50:43;10.20;99.90
39881;DHT22;25554;44.954;10.068;2023-11-21T02:53:09;10.20;99.90
39881;DHT22;25554;44.954;10.068;2023-11-21T02:55:36;10.20;99.90
39881;DHT22;25554;44.954;10.068;2023-11-21T02:58:02;10.20;99.90
39881;DHT22;25554;44.954;10.068;2023-11-21T03:00:32;10.10;99.90
39881;DHT22;25554;44.954;10.068;2023-11-21T03:02:59;10.10;99.90
39881;DHT22;25554;44.954;10.068;2023-11-21T03:05:26;10.10;99.90
39881;DHT22;25554;44.954;10.068;2023-11-21T03:07:52;13.00;99.90
39881;DHT22;25554;44.954;10.068;2023-11-21T03:10:18;10.10;99.90
39881;DHT22;25554;44.954;10.068;2023-11-21T03:12:45;10.10;99.90
39881;DHT22;25554;44.954;10.068;2023-11-21T03:15:11;10.10;99.90
39881;DHT22;25554;44.954;10.068;2023-11-21T03:17:37;10.10;99.90
39881;DHT22;25554;44.954;10.068;2023-11-21T03:20:03;10.00;99.90
39881;DHT22;25554;44.954;10.068;2023-11-21T03:22:29;10.00;99.90
39881;DHT22;25554;44.954;10.068;2023-11-21T03:24:56;10.00;99.90
39881;DHT22;25554;44.954;10.068;2023-11-21T03:27:22;10.10;99.90
39881;DHT22;25554;44.954;10.068;2023-11-21T03:29:48;10.10;99.90
39881;DHT22;25554;44.954;10.068;2023-11-21T03:32:16;10.10;99.90
39881;DHT22;25554;44.954;10.068;2023-11-21T03:34:55;10.10;99.90
39881;DHT22;25554;44.954;10.068;2023-11-21T03:37:22;10.10;99.90
39881;DHT22;25554;44.954;10.068;2023-11-21T03:39:48;10.20;99.90
39881;DHT22;25554;44.954;10.068;2023-11-21T03:42:14;10.10;99.90
39881;DHT22;25554;44.954;10.068;2023-11-21T03:44:41;10.10;99.90
39881;DHT22;25554;44.954;10.068;2023-11-21T03:47:07;10.10;99.90
39881;DHT22;25554;44.954;10.068;2023-11-21T03:49:33;10.10;99.90
39881;DHT22;25554;44.954;10.068;2023-11-21T03:51:59;10.10;99.90
39881;DHT22;25554;44.954;10.068;2023-11-21T03:54:25;10.10;99.90
39881;DHT22;25554;44.954;10.068;2023-11-21T03:56:51;10.10;99.90
39881;DHT22;25554;44.954;10.068;2023-11-21T03:59:18;10.10;99.90
39881;DHT22;25554;44.954;10.068;2023-11-21T04:01:44;10.00;99.90
39881;DHT22;25554;44.954;10.068;2023-11-21T04:04:10;10.00;99.90
39881;DHT22;25554;44.954;10.068;2023-11-21T04:06:36;10.00;99.90
39881;DHT22;25554;44.954;10.068;2023-11-21T04:09:03;10.00;99.90
39881;DHT22;25554;44.954;10.068;2023-11-21T04:11:30;10.00;99.90
39881;DHT22;25554;44.954;10.068;2023-11-21T04:13:56;10.00;99.90
39881;DHT22;25554;44.954;10.068;2023-11-21T04:16:22;10.00;99.90
39881;DHT22;25554;44.954;10.068;2023-11-21T04:18:48;10.00;99.90
39881;DHT22;25554;44.954;10.068;2023-11-21T04:21:15;10.00;99.90
39881;DHT22;25554;44.954;10.068;2023-11-21T04:23:41;10.00;99.90
39881;DHT22;25554;44.954;10.068;2023-11-21T04:26:08;10.00;99.90
39881;DHT22;25554;44.954;10.068;2023-11-21T04:28:34;10.00;99.90
39881;DHT22;25554;44.954;10.068;2023-11-21T04:31:00;10.00;99.90
39881;DHT22;25554;44.954;10.068;2023-11-21T04:33:26;10.00;99.90
39881;DHT22;25554;44.954;10.068;2023-11-21T04:35:52;10.00;99.90
39881;DHT22;25554;44.954;10.068;2023-11-21T04:38:19;10.00;99.90
39881;DHT22;25554;44.954;10.068;2023-11-21T04:40:45;10.00;99.90
39881;DHT22;25554;44.954;10.068;2023-11-21T04:43:11;10.00;99.90
39881;DHT22;25554;44.954;10.068;2023-11-21T04:45:37;10.00;99.90
39881;DHT22;25554;44.954;10.068;2023-11-21T04:48:04;10.00;99.90
39881;DHT22;25554;44.954;10.068;2023-11-21T04:50:31;10.00;99.90
39881;DHT22;25554;44.954;10.068;2023-11-21T04:52:57;10.00;99.90
39881;DHT22;25554;44.954;10.068;2023-11-21T04:55:23;10.10;99.90
39881;DHT22;25554;44.954;10.068;2023-11-21T04:57:49;9.30;99.90
39881;DHT22;25554;44.954;10.068;2023-11-21T05:00:15;10.10;99.90
39881;DHT22;25554;44.954;10.068;2023-11-21T05:02:42;10.10;99.90
39881;DHT22;25554;44.954;10.068;2023-11-21T05:05:09;11.40;99.90
39881;DHT22;25554;44.954;10.068;2023-11-21T05:07:36;10.10;99.90
39881;DHT22;25554;44.954;10.068;2023-11-21T05:10:03;10.10;99.90
39881;DHT22;25554;44.954;10.068;2023-11-21T05:12:31;10.00;99.90
39881;DHT22;25554;44.954;10.068;2023-11-21T05:15:01;12.40;99.90
39881;DHT22;25554;44.954;10.068;2023-11-21T05:17:29;10.00;99.90
39881;DHT22;25554;44.954;10.068;2023-11-21T05:19:56;10.00;99.90
39881;DHT22;25554;44.954;10.068;2023-11-21T05:22:22;10.10;99.90
39881;DHT22;25554;44.954;10.068;2023-11-21T05:24:48;10.00;99.90
39881;DHT22;25554;44.954;10.068;2023-11-21T05:27:14;10.10;99.90
39881;DHT22;25554;44.954;10.068;2023-11-21T05:29:40;10.10;99.90
39881;DHT22;25554;44.954;10.068;2023-11-21T05:32:06;10.10;99.90
39881;DHT22;25554;44.954;10.068;2023-11-21T05:34:32;10.10;99.90
39881;DHT22;25554;44.954;10.068;2023-11-21T05:36:58;10.10;99.90
39881;DHT22;25554;44.954;10.068;2023-11-21T05:39:24;10.10;99.90
39881;DHT22;25554;44.954;10.068;2023-11-21T05:41:50;10.10;99.90
39881;DHT22;25554;44.954;10.068;2023-11-21T05:44:16;10.00;99.90
39881;DHT22;25554;44.954;10.068;2023-11-21T05:46:42;10.00;99.90
39881;DHT22;25554;44.954;10.068;2023-11-21T05:49:09;10.00;99.90
39881;DHT22;25554;44.954;10.068;2023-11-21T05:51:35;10.00;99.90
39881;DHT22;25554;44.954;10.068;2023-11-21T05:54:01;10.00;99.90
39881;DHT22;25554;44.954;10.068;2023-11-21T05:56:28;10.10;99.90
39881;DHT22;25554;44.954;10.068;2023-11-21T05:58:54;10.10;99.90
39881;DHT22;25554;44.954;10.068;2023-11-21T06:01:20;10.10;99.90
39881;DHT22;25554;44.954;10.068;2023-11-21T06:03:46;10.20;99.90
39881;DHT22;25554;44.954;10.068;2023-11-21T06:06:12;10.10;99.90
39881;DHT22;25554;44.954;10.068;2023-11-21T06:08:38;10.10;99.90
39881;DHT22;25554;44.954;10.068;2023-11-21T06:11:04;10.10;99.90
39881;DHT22;25554;44.954;10.068;2023-11-21T06:13:31;10.10;99.90
39881;DHT22;25554;44.954;10.068;2023-11-21T06:15:57;10.10;99.90
39881;DHT22;25554;44.954;10.068;2023-11-21T06:18:23;10.00;99.90
39881;DHT22;25554;44.954;10.068;2023-11-21T06:20:49;10.00;99.90
39881;DHT22;25554;44.954;10.068;2023-11-21T06:23:16;9.90;99.90
39881;DHT22;25554;44.954;10.068;2023-11-21T06:25:42;9.90;99.90
39881;DHT22;25554;44.954;10.068;2023-11-21T06:28:08;9.90;99.90
39881;DHT22;25554;44.954;10.068;2023-11-21T06:30:34;9.90;99.90
39881;DHT22;25554;44.954;10.068;2023-11-21T06:33:00;10.90;99.90
39881;DHT22;25554;44.954;10.068;2023-11-21T06:35:26;9.90;99.90
39881;DHT22;25554;44.954;10.068;2023-11-21T06:37:56;9.90;99.90
39881;DHT22;25554;44.954;10.068;2023-11-21T06:40:22;9.90;99.90
39881;DHT22;25554;44.954;10.068;2023-11-21T06:42:48;9.90;99.90
39881;DHT22;25554;44.954;10.068;2023-11-21T06:45:15;9.90;99.90
39881;DHT22;25554;44.954;10.068;2023-11-21T06:47:41;9.90;99.90
39881;DHT22;25554;44.954;10.068;2023-11-21T06:50:07;9.90;99.90
39881;DHT22;25554;44.954;10.068;2023-11-21T06:52:33;10.00;99.90
39881;DHT22;25554;44.954;10.068;2023-11-21T06:55:00;10.00;99.90
39881;DHT22;25554;44.954;10.068;2023-11-21T06:57:26;9.90;99.90
39881;DHT22;25554;44.954;10.068;2023-11-21T06:59:53;9.90;99.90
39881;DHT22;25554;44.954;10.068;2023-11-21T07:02:19;9.90;99.90
39881;DHT22;25554;44.954;10.068;2023-11-21T07:04:45;9.90;99.90
39881;DHT22;25554;44.954;10.068;2023-11-21T07:07:12;9.10;99.90
39881;DHT22;25554;44.954;10.068;2023-11-21T07:09:38;9.90;99.90
39881;DHT22;25554;44.954;10.068;2023-11-21T07:12:04;9.90;99.90
39881;DHT22;25554;44.954;10.068;2023-11-21T07:14:33;9.90;99.90
39881;DHT22;25554;44.954;10.068;2023-11-21T07:16:59;10.30;99.90
39881;DHT22;25554;44.954;10.068;2023-11-21T07:19:26;9.90;99.90
39881;DHT22;25554;44.954;10.068;2023-11-21T07:21:52;9.90;99.90
39881;DHT22;25554;44.954;10.068;2023-11-21T07:24:18;9.90;99.90
39881;DHT22;25554;44.954;10.068;2023-11-21T07:26:44;9.90;99.90
39881;DHT22;25554;44.954;10.068;2023-11-21T07:29:10;9.90;99.90
39881;DHT22;25554;44.954;10.068;2023-11-21T07:31:37;9.90;99.90
39881;DHT22;25554;44.954;10.068;2023-11-21T07:34:04;9.90;99.90
39881;DHT22;25554;44.954;10.068;2023-11-21T07:36:30;9.90;99.90
39881;DHT22;25554;44.954;10.068;2023-11-21T07:38:56;9.90;99.90
39881;DHT22;25554;44.954;10.068;2023-11-21T07:41:22;9.90;99.90
39881;DHT22;25554;44.954;10.068;2023-11-21T07:43:48;10.00;99.90
39881;DHT22;25554;44.954;10.068;2023-11-21T07:46:16;9.90;99.90
39881;DHT22;25554;44.954;10.068;2023-11-21T07:48:42;9.90;99.90
39881;DHT22;25554;44.954;10.068;2023-11-21T07:51:09;10.00;99.90
39881;DHT22;25554;44.954;10.068;2023-11-21T07:53:36;9.90;99.90
39881;DHT22;25554;44.954;10.068;2023-11-21T07:56:02;10.00;99.90
39881;DHT22;25554;44.954;10.068;2023-11-21T07:58:29;9.90;99.90
39881;DHT22;25554;44.954;10.068;2023-11-21T08:00:55;10.00;99.90
39881;DHT22;25554;44.954;10.068;2023-11-21T08:03:21;10.00;99.90
39881;DHT22;25554;44.954;10.068;2023-11-21T08:05:47;10.00;99.90
39881;DHT22;25554;44.954;10.068;2023-11-21T08:08:13;10.00;99.90
39881;DHT22;25554;44.954;10.068;2023-11-21T08:10:39;10.10;99.90
39881;DHT22;25554;44.954;10.068;2023-11-21T08:13:05;10.10;99.90
39881;DHT22;25554;44.954;10.068;2023-11-21T08:15:34;10.10;99.90
39881;DHT22;25554;44.954;10.068;2023-11-21T08:18:02;10.10;99.90
39881;DHT22;25554;44.954;10.068;2023-11-21T08:20:29;10.20;99.90
39881;DHT22;25554;44.954;10.068;2023-11-21T08:22:55;10.20;99.90
39881;DHT22;25554;44.954;10.068;2023-11-21T08:25:22;10.20;99.90
39881;DHT22;25554;44.954;10.068;2023-11-21T08:27:48;10.20;99.90
39881;DHT22;25554;44.954;10.068;2023-11-21T08:30:15;10.20;99.90
39881;DHT22;25554;44.954;10.068;2023-11-21T08:32:42;10.30;99.90
39881;DHT22;25554;44.954;10.068;2023-11-21T08:35:08;12.10;99.90
39881;DHT22;25554;44.954;10.068;2023-11-21T08:37:35;10.30;99.90
39881;DHT22;25554;44.954;10.068;2023-11-21T08:40:05;10.40;99.90
39881;DHT22;25554;44.954;10.068;2023-11-21T08:42:35;10.40;99.90
39881;DHT22;25554;44.954;10.068;2023-11-21T08:45:01;10.50;99.90
39881;DHT22;25554;44.954;10.068;2023-11-21T08:47:27;10.50;99.90
39881;DHT22;25554;44.954;10.068;2023-11-21T08:49:53;10.60;99.90
39881;DHT22;25554;44.954;10.068;2023-11-21T08:52:20;10.60;99.90
39881;DHT22;25554;44.954;10.068;2023-11-21T08:54:49;10.60;99.90
39881;DHT22;25554;44.954;10.068;2023-11-21T08:57:22;10.60;99.90
39881;DHT22;25554;44.954;10.068;2023-11-21T08:59:48;10.70;99.90
39881;DHT22;25554;44.954;10.068;2023-11-21T09:02:14;10.70;99.90
39881;DHT22;25554;44.954;10.068;2023-11-21T09:04:40;10.70;99.90
39881;DHT22;25554;44.954;10.068;2023-11-21T09:07:06;10.70;99.90
39881;DHT22;25554;44.954;10.068;2023-11-21T09:09:32;10.70;99.90
39881;DHT22;25554;44.954;10.068;2023-11-21T09:11:58;10.80;99.90
39881;DHT22;25554;44.954;10.068;2023-11-21T09:14:27;10.80;99.90
39881;DHT22;25554;44.954;10.068;2023-11-21T09:16:54;10.80;99.90
39881;DHT22;25554;44.954;10.068;2023-11-21T09:19:21;10.80;99.90
39881;DHT22;25554;44.954;10.068;2023-11-21T09:21:47;10.80;99.90
39881;DHT22;25554;44.954;10.068;2023-11-21T09:24:14;10.90;99.90
39881;DHT22;25554;44.954;10.068;2023-11-21T09:26:40;10.90;99.90
39881;DHT22;25554;44.954;10.068;2023-11-21T09:29:07;10.90;99.90
39881;DHT22;25554;44.954;10.068;2023-11-21T09:31:34;10.90;99.90
39881;DHT22;25554;44.954;10.068;2023-11-21T09:34:01;10.90;99.90
39881;DHT22;25554;44.954;10.068;2023-11-21T09:36:28;10.90;99.90
39881;DHT22;25554;44.954;10.068;2023-11-21T09:38:56;10.90;99.90
39881;DHT22;25554;44.954;10.068;2023-11-21T09:41:46;10.90;99.90
39881;DHT22;25554;44.954;10.068;2023-11-21T09:44:10;10.90;99.90
39881;DHT22;25554;44.954;10.068;2023-11-21T09:46:42;10.90;99.90
39881;DHT22;25554;44.954;10.068;2023-11-21T09:49:08;10.90;99.90
39881;DHT22;25554;44.954;10.068;2023-11-21T09:51:42;11.00;99.90
39881;DHT22;25554;44.954;10.068;2023-11-21T09:54:11;11.10;99.90
39881;DHT22;25554;44.954;10.068;2023-11-21T09:56:38;11.10;99.90
39881;DHT22;25554;44.954;10.068;2023-11-21T09:59:04;11.10;99.90
39881;DHT22;25554;44.954;10.068;2023-11-21T10:01:33;11.10;99.90
39881;DHT22;25554;44.954;10.068;2023-11-21T10:04:01;11.10;99.90
39881;DHT22;25554;44.954;10.068;2023-11-21T10:06:27;11.10;99.90
39881;DHT22;25554;44.954;10.068;2023-11-21T10:08:55;11.10;99.90
39881;DHT22;25554;44.954;10.068;2023-11-21T10:11:24;11.10;99.90
39881;DHT22;25554;44.954;10.068;2023-11-21T10:13:55;11.20;99.90
39881;DHT22;25554;44.954;10.068;2023-11-21T10:16:23;11.20;99.90
39881;DHT22;25554;44.954;10.068;2023-11-21T10:18:52;11.20;99.90
39881;DHT22;25554;44.954;10.068;2023-11-21T10:21:21;11.20;99.90
39881;DHT22;25554;44.954;10.068;2023-11-21T10:23:47;11.20;99.90
39881;DHT22;25554;44.954;10.068;2023-11-21T10:26:14;11.30;99.90
39881;DHT22;25554;44.954;10.068;2023-11-21T10:28:55;11.40;99.90
39881;DHT22;25554;44.954;10.068;2023-11-21T10:31:23;11.40;99.90
39881;DHT22;25554;44.954;10.068;2023-11-21T10:33:52;8.70;99.90
39881;DHT22;25554;44.954;10.068;2023-11-21T10:36:26;11.60;99.90
39881;DHT22;25554;44.954;10.068;2023-11-21T10:38:53;11.70;99.90
39881;DHT22;25554;44.954;10.068;2023-11-21T10:41:22;11.70;99.90
39881;DHT22;25554;44.954;10.068;2023-11-21T10:43:48;11.70;99.90
39881;DHT22;25554;44.954;10.068;2023-11-21T10:46:14;11.80;99.90
39881;DHT22;25554;44.954;10.068;2023-11-21T10:48:41;11.80;99.90
39881;DHT22;25554;44.954;10.068;2023-11-21T10:51:08;11.90;99.90
39881;DHT22;25554;44.954;10.068;2023-11-21T10:53:41;11.90;99.90
39881;DHT22;25554;44.954;10.068;2023-11-21T10:56:12;12.60;99.90
39881;DHT22;25554;44.954;10.068;2023-11-21T10:58:43;12.00;99.90
39881;DHT22;25554;44.954;10.068;2023-11-21T11:01:09;12.00;99.90
39881;DHT22;25554;44.954;10.068;2023-11-21T11:03:40;12.00;99.90
39881;DHT22;25554;44.954;10.068;2023-11-21T11:06:07;12.10;99.90
39881;DHT22;25554;44.954;10.068;2023-11-21T11:08:37;12.10;99.90
39881;DHT22;25554;44.954;10.068;2023-11-21T11:11:07;12.20;99.90
39881;DHT22;25554;44.954;10.068;2023-11-21T11:13:33;12.10;99.90
39881;DHT22;25554;44.954;10.068;2023-11-21T11:15:59;12.20;99.90
39881;DHT22;25554;44.954;10.068;2023-11-21T11:18:30;12.20;99.90
39881;DHT22;25554;44.954;10.068;2023-11-21T11:20:59;12.20;99.90
39881;DHT22;25554;44.954;10.068;2023-11-21T11:23:32;12.20;99.90
39881;DHT22;25554;44.954;10.068;2023-11-21T11:36:50;12.30;99.90
39881;DHT22;25554;44.954;10.068;2023-11-21T11:41:55;12.40;99.90
39881;DHT22;25554;44.954;10.068;2023-11-21T11:47:24;12.40;99.90
39881;DHT22;25554;44.954;10.068;2023-11-21T11:50:08;12.50;99.90
39881;DHT22;25554;44.954;10.068;2023-11-21T11:52:43;12.50;99.90
39881;DHT22;25554;44.954;10.068;2023-11-21T11:55:11;12.50;99.90
39881;DHT22;25554;44.954;10.068;2023-11-21T11:57:38;12.60;99.90
39881;DHT22;25554;44.954;10.068;2023-11-21T12:00:11;14.50;99.90
39881;DHT22;25554;44.954;10.068;2023-11-21T12:02:38;12.80;99.90
39881;DHT22;25554;44.954;10.068;2023-11-21T12:05:11;12.80;99.90
39881;DHT22;25554;44.954;10.068;2023-11-21T12:07:41;12.80;99.90
39881;DHT22;25554;44.954;10.068;2023-11-21T12:10:07;12.90;99.90
39881;DHT22;25554;44.954;10.068;2023-11-21T12:12:37;12.90;99.90
39881;DHT22;25554;44.954;10.068;2023-11-21T12:15:04;13.00;99.90
39881;DHT22;25554;44.954;10.068;2023-11-21T12:17:31;13.00;99.90
39881;DHT22;25554;44.954;10.068;2023-11-21T12:20:03;13.00;99.90
39881;DHT22;25554;44.954;10.068;2023-11-21T12:22:31;13.10;99.90
39881;DHT22;25554;44.954;10.068;2023-11-21T12:24:57;13.00;99.90
39881;DHT22;25554;44.954;10.068;2023-11-21T12:27:23;13.00;99.90
39881;DHT22;25554;44.954;10.068;2023-11-21T12:29:49;13.00;99.90
39881;DHT22;25554;44.954;10.068;2023-11-21T12:32:15;13.00;99.90
39881;DHT22;25554;44.954;10.068;2023-11-21T12:34:44;13.00;99.90
39881;DHT22;25554;44.954;10.068;2023-11-21T12:37:10;13.00;99.90
39881;DHT22;25554;44.954;10.068;2023-11-21T12:39:36;14.40;99.90
39881;DHT22;25554;44.954;10.068;2023-11-21T12:42:03;13.10;99.90
39881;DHT22;25554;44.954;10.068;2023-11-21T12:44:29;13.20;99.90
39881;DHT22;25554;44.954;10.068;2023-11-21T12:46:55;13.20;99.90
39881;DHT22;25554;44.954;10.068;2023-11-21T12:49:21;13.20;99.90
39881;DHT22;25554;44.954;10.068;2023-11-21T12:51:48;13.20;99.90
39881;DHT22;25554;44.954;10.068;2023-11-21T12:54:14;11.10;99.90
39881;DHT22;25554;44.954;10.068;2023-11-21T12:56:41;13.20;99.90
39881;DHT22;25554;44.954;10.068;2023-11-21T12:59:07;13.10;99.90
39881;DHT22;25554;44.954;10.068;2023-11-21T13:01:37;13.10;99.90
39881;DHT22;25554;44.954;10.068;2023-11-21T13:04:07;13.00;99.90
39881;DHT22;25554;44.954;10.068;2023-11-21T13:06:33;13.00;99.90
39881;DHT22;25554;44.954;10.068;2023-11-21T13:09:04;12.90;99.90
39881;DHT22;25554;44.954;10.068;2023-11-21T13:11:33;12.90;99.90
39881;DHT22;25554;44.954;10.068;2023-11-21T13:13:59;12.90;99.90
39881;DHT22;25554;44.954;10.068;2023-11-21T13:16:26;12.80;99.90
39881;DHT22;25554;44.954;10.068;2023-11-21T13:18:53;12.80;99.90
39881;DHT22;25554;44.954;10.068;2023-11-21T13:21:19;12.90;99.90
39881;DHT22;25554;44.954;10.068;2023-11-21T13:23:48;12.90;99.90
39881;DHT22;25554;44.954;10.068;2023-11-21T13:26:16;12.90;99.90
39881;DHT22;25554;44.954;10.068;2023-11-21T13:28:43;12.90;99.90
39881;DHT22;25554;44.954;10.068;2023-11-21T13:31:13;12.90;99.90
39881;DHT22;25554;44.954;10.068;2023-11-21T13:33:58;13.00;99.90
39881;DHT22;25554;44.954;10.068;2023-11-21T13:36:30;13.00;99.90
39881;DHT22;25554;44.954;10.068;2023-11-21T13:38:59;13.00;99.90
39881;DHT22;25554;44.954;10.068;2023-11-21T13:41:30;13.10;99.90
39881;DHT22;25554;44.954;10.068;2023-11-21T13:43:56;13.00;99.90
39881;DHT22;25554;44.954;10.068;2023-11-21T13:46:41;13.10;99.90
39881;DHT22;25554;44.954;10.068;2023-11-21T13:49:07;13.00;99.90
39881;DHT22;25554;44.954;10.068;2023-11-21T13:51:36;13.00;99.90
39881;DHT22;25554;44.954;10.068;2023-11-21T13:54:10;14.10;99.90
39881;DHT22;25554;44.954;10.068;2023-11-21T13:56:36;12.90;99.90
39881;DHT22;25554;44.954;10.068;2023-11-21T13:59:03;12.90;99.90
39881;DHT22;25554;44.954;10.068;2023-11-21T14:01:40;12.90;99.90
39881;DHT22;25554;44.954;10.068;2023-11-21T14:04:18;13.20;99.90
39881;DHT22;25554;44.954;10.068;2023-11-21T14:06:51;12.80;99.90
39881;DHT22;25554;44.954;10.068;2023-11-21T14:09:21;12.80;99.90
39881;DHT22;25554;44.954;10.068;2023-11-21T14:12:01;12.80;99.90
39881;DHT22;25554;44.954;10.068;2023-11-21T14:14:32;12.80;99.90
39881;DHT22;25554;44.954;10.068;2023-11-21T14:16:58;12.80;99.90
39881;DHT22;25554;44.954;10.068;2023-11-21T14:19:32;12.70;99.90
39881;DHT22;25554;44.954;10.068;2023-11-21T14:22:00;12.70;99.90
39881;DHT22;25554;44.954;10.068;2023-11-21T14:24:27;12.60;99.90
39881;DHT22;25554;44.954;10.068;2023-11-21T14:26:54;12.60;99.90
39881;DHT22;25554;44.954;10.068;2023-11-21T14:29:21;12.60;99.90
39881;DHT22;25554;44.954;10.068;2023-11-21T14:31:49;12.60;99.90
39881;DHT22;25554;44.954;10.068;2023-11-21T14:34:17;12.60;99.90
39881;DHT22;25554;44.954;10.068;2023-11-21T14:36:44;12.70;99.90
39881;DHT22;25554;44.954;10.068;2023-11-21T14:39:11;12.70;99.90
39881;DHT22;25554;44.954;10.068;2023-11-21T14:41:49;12.70;99.90
39881;DHT22;25554;44.954;10.068;2023-11-21T14:44:15;12.60;99.90
39881;DHT22;25554;44.954;10.068;2023-11-21T14:46:41;12.70;99.90
39881;DHT22;25554;44.954;10.068;2023-11-21T14:49:12;12.60;99.90
39881;DHT22;25554;44.954;10.068;2023-11-21T14:51:51;12.50;99.90
39881;DHT22;25554;44.954;10.068;2023-11-21T14:54:28;12.60;99.90
39881;DHT22;25554;44.954;10.068;2023-11-21T14:57:08;12.60;99.90
39881;DHT22;25554;44.954;10.068;2023-11-21T14:59:42;12.60;99.90
39881;DHT22;25554;44.954;10.068;2023-11-21T15:02:08;12.50;99.90
39881;DHT22;25554;44.954;10.068;2023-11-21T15:04:41;12.50;99.90
39881;DHT22;25554;44.954;10.068;2023-11-21T15:07:08;12.50;99.90
39881;DHT22;25554;44.954;10.068;2023-11-21T15:09:34;12.50;99.90
39881;DHT22;25554;44.954;10.068;2023-11-21T15:12:05;12.40;99.90
39881;DHT22;25554;44.954;10.068;2023-11-21T15:17:06;12.40;99.90
39881;DHT22;25554;44.954;10.068;2023-11-21T15:19:33;12.40;99.90
39881;DHT22;25554;44.954;10.068;2023-11-21T15:22:01;12.40;99.90
39881;DHT22;25554;44.954;10.068;2023-11-21T15:24:28;12.30;99.90
39881;DHT22;25554;44.954;10.068;2023-11-21T15:26:54;12.30;99.90
39881;DHT22;25554;44.954;10.068;2023-11-21T15:29:20;12.30;99.90
39881;DHT22;25554;44.954;10.068;2023-11-21T15:31:47;12.20;99.90
39881;DHT22;25554;44.954;10.068;2023-11-21T15:34:14;12.30;99.90
39881;DHT22;25554;44.954;10.068;2023-11-21T15:36:41;12.30;99.90
39881;DHT22;25554;44.954;10.068;2023-11-21T15:39:07;12.30;99.90